sensor_id;sensor_type;location;lat;lon;timestamp;pressure;altitude;pressure_sealevel;temperature
73685;BMP280;61985;51.070;14.064;2023-02-08T00:01:23;101031.56;;;-6.85
73685;BMP280;61985;51.070;14.064;2023-02-08T00:03:49;101028.22;;;-6.97
73685;BMP280;61985;51.070;14.064;2023-02-08T00:06:15;101035.22;;;-7.03
73685;BMP280;61985;51.070;14.064;2023-02-08T00:08:40;101027.25;;;-7.08
73685;BMP280;61985;51.070;14.064;2023-02-08T00:11:06;101033.28;;;-7.08
73685;BMP280;61985;51.070;14.064;2023-02-08T00:13:32;101034.78;;;-6.95
73685;BMP280;61985;51.070;14.064;2023-02-08T00:15:58;101032.63;;;-7.15
73685;BMP280;61985;51.070;14.064;2023-02-08T00:18:23;101027.41;;;-7.15
73685;BMP280;61985;51.070;14.064;2023-02-08T00:20:49;101038.69;;;-7.14
73685;BMP280;61985;51.070;14.064;2023-02-08T00:23:15;101035.75;;;-7.01
73685;BMP280;61985;51.070;14.064;2023-02-08T00:25:41;101036.44;;;-7.23
73685;BMP280;61985;51.070;14.064;2023-02-08T00:28:08;101029.28;;;-7.27
73685;BMP280;61985;51.070;14.064;2023-02-08T00:30:35;101030.41;;;-7.23
73685;BMP280;61985;51.070;14.064;2023-02-08T00:33:01;101023.09;;;-7.21
73685;BMP280;61985;51.070;14.064;2023-02-08T00:35:27;101026.63;;;-7.15
73685;BMP280;61985;51.070;14.064;2023-02-08T00:37:52;101027.16;;;-6.96
73685;BMP280;61985;51.070;14.064;2023-02-08T00:40:17;101027.88;;;-7.18
73685;BMP280;61985;51.070;14.064;2023-02-08T00:42:43;101031.91;;;-7.27
73685;BMP280;61985;51.070;14.064;2023-02-08T00:45:09;101030.88;;;-7.26
73685;BMP280;61985;51.070;14.064;2023-02-08T00:47:34;101024.16;;;-7.22
73685;BMP280;61985;51.070;14.064;2023-02-08T00:49:59;101032.97;;;-7.28
73685;BMP280;61985;51.070;14.064;2023-02-08T00:52:24;101034.53;;;-7.27
73685;BMP280;61985;51.070;14.064;2023-02-08T00:54:50;101029.19;;;-7.32
73685;BMP280;61985;51.070;14.064;2023-02-08T00:57:15;101025.94;;;-7.40
73685;BMP280;61985;51.070;14.064;2023-02-08T00:59:40;101019.13;;;-7.41
73685;BMP280;61985;51.070;14.064;2023-02-08T01:02:06;101009.97;;;-7.38
73685;BMP280;61985;51.070;14.064;2023-02-08T01:04:31;101011.03;;;-7.39
73685;BMP280;61985;51.070;14.064;2023-02-08T01:06:56;101011.25;;;-7.41
73685;BMP280;61985;51.070;14.064;2023-02-08T01:09:22;101004.44;;;-7.42
73685;BMP280;61985;51.070;14.064;2023-02-08T01:11:47;101001.88;;;-7.37
73685;BMP280;61985;51.070;14.064;2023-02-08T01:14:12;101009.00;;;-7.32
73685;BMP280;61985;51.070;14.064;2023-02-08T01:16:38;101003.00;;;-7.32
73685;BMP280;61985;51.070;14.064;2023-02-08T01:19:03;101009.00;;;-7.32
73685;BMP280;61985;51.070;14.064;2023-02-08T01:21:32;101007.53;;;-7.28
73685;BMP280;61985;51.070;14.064;2023-02-08T01:23:58;101006.09;;;-7.36
73685;BMP280;61985;51.070;14.064;2023-02-08T01:26:24;101013.03;;;-7.29
73685;BMP280;61985;51.070;14.064;2023-02-08T01:28:50;101013.41;;;-7.38
73685;BMP280;61985;51.070;14.064;2023-02-08T01:31:19;101011.31;;;-7.53
73685;BMP280;61985;51.070;14.064;2023-02-08T01:33:45;101007.53;;;-7.57
73685;BMP280;61985;51.070;14.064;2023-02-08T01:36:11;101009.38;;;-7.57
73685;BMP280;61985;51.070;14.064;2023-02-08T01:38:37;101009.38;;;-7.57
73685;BMP280;61985;51.070;14.064;2023-02-08T01:41:04;101008.16;;;-7.66
73685;BMP280;61985;51.070;14.064;2023-02-08T01:43:34;101000.16;;;-7.60
73685;BMP280;61985;51.070;14.064;2023-02-08T01:46:18;101004.97;;;-7.69
73685;BMP280;61985;51.070;14.064;2023-02-08T01:48:44;100999.75;;;-7.69
73685;BMP280;61985;51.070;14.064;2023-02-08T01:51:14;101000.22;;;-7.72
73685;BMP280;61985;51.070;14.064;2023-02-08T01:53:41;100999.41;;;-7.72
73685;BMP280;61985;51.070;14.064;2023-02-08T01:56:10;100992.25;;;-7.77
73685;BMP280;61985;51.070;14.064;2023-02-08T01:58:41;100988.84;;;-7.77
73685;BMP280;61985;51.070;14.064;2023-02-08T02:01:08;100997.38;;;-7.70
73685;BMP280;61985;51.070;14.064;2023-02-08T02:03:34;100994.41;;;-7.74
73685;BMP280;61985;51.070;14.064;2023-02-08T02:06:10;101007.03;;;-7.71
73685;BMP280;61985;51.070;14.064;2023-02-08T02:08:37;100993.25;;;-7.66
73685;BMP280;61985;51.070;14.064;2023-02-08T02:11:04;100994.28;;;-7.67
73685;BMP280;61985;51.070;14.064;2023-02-08T02:13:30;100990.84;;;-7.68
73685;BMP280;61985;51.070;14.064;2023-02-08T02:15:55;100999.06;;;-7.64
73685;BMP280;61985;51.070;14.064;2023-02-08T02:18:29;100986.22;;;-7.65
73685;BMP280;61985;51.070;14.064;2023-02-08T02:27:03;100980.56;;;-7.86
73685;BMP280;61985;51.070;14.064;2023-02-08T02:30:08;100987.94;;;-7.83
73685;BMP280;61985;51.070;14.064;2023-02-08T02:42:05;100979.16;;;-7.77
73685;BMP280;61985;51.070;14.064;2023-02-08T02:48:12;100975.97;;;-7.79
73685;BMP280;61985;51.070;14.064;2023-02-08T02:50:51;100977.00;;;-7.80
73685;BMP280;61985;51.070;14.064;2023-02-08T02:53:23;100987.94;;;-7.83
73685;BMP280;61985;51.070;14.064;2023-02-08T02:55:55;100975.97;;;-7.79
73685;BMP280;61985;51.070;14.064;2023-02-08T02:58:24;100979.91;;;-7.93
73685;BMP280;61985;51.070;14.064;2023-02-08T03:00:52;100984.59;;;-7.95
73685;BMP280;61985;51.070;14.064;2023-02-08T03:03:26;100990.84;;;-7.96
73685;BMP280;61985;51.070;14.064;2023-02-08T03:05:56;100988.78;;;-7.94
73685;BMP280;61985;51.070;14.064;2023-02-08T03:08:47;100985.63;;;-7.96
73685;BMP280;61985;51.070;14.064;2023-02-08T03:11:22;100991.16;;;-7.93
73685;BMP280;61985;51.070;14.064;2023-02-08T03:19:26;100995.88;;;-8.07
73685;BMP280;61985;51.070;14.064;2023-02-08T03:24:45;100997.16;;;-7.80
73685;BMP280;61985;51.070;14.064;2023-02-08T03:30:11;101001.78;;;-7.99
73685;BMP280;61985;51.070;14.064;2023-02-08T03:32:45;100999.06;;;-8.05
73685;BMP280;61985;51.070;14.064;2023-02-08T03:35:18;101007.22;;;-7.89
73685;BMP280;61985;51.070;14.064;2023-02-08T03:40:28;101008.56;;;-7.87
73685;BMP280;61985;51.070;14.064;2023-02-08T03:42:57;101016.66;;;-7.88
73685;BMP280;61985;51.070;14.064;2023-02-08T03:45:31;101017.22;;;-7.86
73685;BMP280;61985;51.070;14.064;2023-02-08T03:47:59;101012.84;;;-7.69
73685;BMP280;61985;51.070;14.064;2023-02-08T03:50:27;101014.34;;;-7.44
73685;BMP280;61985;51.070;14.064;2023-02-08T03:52:54;101010.44;;;-7.41
73685;BMP280;61985;51.070;14.064;2023-02-08T03:55:23;101022.16;;;-7.15
73685;BMP280;61985;51.070;14.064;2023-02-08T04:01:04;101024.72;;;-7.03
73685;BMP280;61985;51.070;14.064;2023-02-08T04:03:33;101030.94;;;-6.92
73685;BMP280;61985;51.070;14.064;2023-02-08T04:05:59;101024.06;;;-6.59
73685;BMP280;61985;51.070;14.064;2023-02-08T04:08:25;101029.72;;;-6.51
73685;BMP280;61985;51.070;14.064;2023-02-08T04:10:51;101026.03;;;-6.50
73685;BMP280;61985;51.070;14.064;2023-02-08T04:13:16;101028.00;;;-6.40
73685;BMP280;61985;51.070;14.064;2023-02-08T04:15:41;101029.53;;;-6.22
73685;BMP280;61985;51.070;14.064;2023-02-08T04:18:08;101035.34;;;-6.20
73685;BMP280;61985;51.070;14.064;2023-02-08T04:20:33;101030.09;;;-6.20
73685;BMP280;61985;51.070;14.064;2023-02-08T04:22:58;101023.50;;;-6.22
73685;BMP280;61985;51.070;14.064;2023-02-08T04:25:24;101029.38;;;-6.15
73685;BMP280;61985;51.070;14.064;2023-02-08T04:27:49;101020.44;;;-6.14
73685;BMP280;61985;51.070;14.064;2023-02-08T04:30:14;101015.69;;;-6.17
73685;BMP280;61985;51.070;14.064;2023-02-08T04:32:40;101020.94;;;-6.17
73685;BMP280;61985;51.070;14.064;2023-02-08T04:35:05;101018.53;;;-6.19
73685;BMP280;61985;51.070;14.064;2023-02-08T04:37:31;101021.25;;;-6.13
73685;BMP280;61985;51.070;14.064;2023-02-08T04:39:56;101021.84;;;-6.06
73685;BMP280;61985;51.070;14.064;2023-02-08T04:42:21;101015.31;;;-6.04
73685;BMP280;61985;51.070;14.064;2023-02-08T04:44:47;101016.41;;;-6.00
73685;BMP280;61985;51.070;14.064;2023-02-08T04:47:12;101012.88;;;-5.88
73685;BMP280;61985;51.070;14.064;2023-02-08T04:49:37;101019.97;;;-5.89
73685;BMP280;61985;51.070;14.064;2023-02-08T04:55:24;101017.38;;;-5.84
73685;BMP280;61985;51.070;14.064;2023-02-08T04:57:49;101010.78;;;-5.86
73685;BMP280;61985;51.070;14.064;2023-02-08T05:00:15;101010.06;;;-5.82
73685;BMP280;61985;51.070;14.064;2023-02-08T05:02:40;101020.31;;;-5.80
73685;BMP280;61985;51.070;14.064;2023-02-08T05:05:06;101009.22;;;-5.87
73685;BMP280;61985;51.070;14.064;2023-02-08T05:07:31;101019.72;;;-5.87
73685;BMP280;61985;51.070;14.064;2023-02-08T05:09:56;101011.50;;;-5.96
73685;BMP280;61985;51.070;14.064;2023-02-08T05:12:22;101014.81;;;-6.01
73685;BMP280;61985;51.070;14.064;2023-02-08T05:14:47;101012.44;;;-6.02
73685;BMP280;61985;51.070;14.064;2023-02-08T05:17:12;101005.56;;;-6.08
73685;BMP280;61985;51.070;14.064;2023-02-08T05:19:38;101010.28;;;-6.10
73685;BMP280;61985;51.070;14.064;2023-02-08T05:22:03;101013.72;;;-6.05
73685;BMP280;61985;51.070;14.064;2023-02-08T05:24:28;101005.09;;;-6.00
73685;BMP280;61985;51.070;14.064;2023-02-08T05:26:54;101004.41;;;-5.95
73685;BMP280;61985;51.070;14.064;2023-02-08T05:29:19;101010.72;;;-5.96
73685;BMP280;61985;51.070;14.064;2023-02-08T05:31:44;101008.84;;;-5.96
73685;BMP280;61985;51.070;14.064;2023-02-08T05:34:09;101004.84;;;-5.99
73685;BMP280;61985;51.070;14.064;2023-02-08T05:36:36;101004.16;;;-5.94
73685;BMP280;61985;51.070;14.064;2023-02-08T05:39:01;101013.13;;;-5.90
73685;BMP280;61985;51.070;14.064;2023-02-08T07:45:39;101083.50;;;-5.15
73685;BMP280;61985;51.070;14.064;2023-02-08T07:48:05;101074.88;;;-5.05
73685;BMP280;61985;51.070;14.064;2023-02-08T07:50:33;101086.28;;;-4.95
73685;BMP280;61985;51.070;14.064;2023-02-08T08:00:42;101090.44;;;-4.66
73685;BMP280;61985;51.070;14.064;2023-02-08T08:03:07;101087.63;;;-4.60
73685;BMP280;61985;51.070;14.064;2023-02-08T08:05:33;101087.63;;;-4.54
73685;BMP280;61985;51.070;14.064;2023-02-08T08:07:58;101084.75;;;-4.53
73685;BMP280;61985;51.070;14.064;2023-02-08T08:10:23;101094.75;;;-4.50
73685;BMP280;61985;51.070;14.064;2023-02-08T08:12:49;101098.22;;;-4.44
73685;BMP280;61985;51.070;14.064;2023-02-08T08:15:14;101104.84;;;-4.41
73685;BMP280;61985;51.070;14.064;2023-02-08T08:17:40;101111.47;;;-4.29
73685;BMP280;61985;51.070;14.064;2023-02-08T08:20:08;101098.31;;;-4.29
73685;BMP280;61985;51.070;14.064;2023-02-08T08:22:33;101109.44;;;-4.21
73685;BMP280;61985;51.070;14.064;2023-02-08T08:24:58;101101.03;;;-4.18
73685;BMP280;61985;51.070;14.064;2023-02-08T08:27:24;101097.63;;;-4.14
73685;BMP280;61985;51.070;14.064;2023-02-08T08:29:50;101103.66;;;-4.13
73685;BMP280;61985;51.070;14.064;2023-02-08T08:32:15;101112.59;;;-4.19
73685;BMP280;61985;51.070;14.064;2023-02-08T08:34:40;101121.31;;;-4.09
73685;BMP280;61985;51.070;14.064;2023-02-08T08:37:06;101111.81;;;-4.15
73685;BMP280;61985;51.070;14.064;2023-02-08T08:39:31;101116.84;;;-4.13
73685;BMP280;61985;51.070;14.064;2023-02-08T08:41:58;101116.06;;;-4.14
73685;BMP280;61985;51.070;14.064;2023-02-08T08:44:24;101117.66;;;-4.08
73685;BMP280;61985;51.070;14.064;2023-02-08T08:46:49;101129.78;;;-4.01
73685;BMP280;61985;51.070;14.064;2023-02-08T08:49:15;101123.22;;;-3.99
73685;BMP280;61985;51.070;14.064;2023-02-08T08:51:40;101127.38;;;-4.08
73685;BMP280;61985;51.070;14.064;2023-02-08T08:54:05;101125.03;;;-4.04
73685;BMP280;61985;51.070;14.064;2023-02-08T08:56:31;101130.09;;;-3.93
73685;BMP280;61985;51.070;14.064;2023-02-08T08:58:57;101130.88;;;-3.92
73685;BMP280;61985;51.070;14.064;2023-02-08T09:01:22;101124.56;;;-3.91
73685;BMP280;61985;51.070;14.064;2023-02-08T09:03:48;101124.84;;;-3.82
73685;BMP280;61985;51.070;14.064;2023-02-08T09:06:13;101130.97;;;-3.71
73685;BMP280;61985;51.070;14.064;2023-02-08T09:08:39;101132.56;;;-3.65
73685;BMP280;61985;51.070;14.064;2023-02-08T09:11:05;101132.31;;;-3.59
73685;BMP280;61985;51.070;14.064;2023-02-08T09:13:31;101132.06;;;-3.57
73685;BMP280;61985;51.070;14.064;2023-02-08T09:15:56;101136.31;;;-3.46
73685;BMP280;61985;51.070;14.064;2023-02-08T09:18:22;101139.75;;;-3.40
73685;BMP280;61985;51.070;14.064;2023-02-08T09:20:47;101132.63;;;-3.45
73685;BMP280;61985;51.070;14.064;2023-02-08T09:23:12;101133.66;;;-3.46
73685;BMP280;61985;51.070;14.064;2023-02-08T09:25:39;101136.31;;;-3.41
73685;BMP280;61985;51.070;14.064;2023-02-08T09:28:04;101136.59;;;-3.37
73685;BMP280;61985;51.070;14.064;2023-02-08T09:30:30;101135.00;;;-3.28
73685;BMP280;61985;51.070;14.064;2023-02-08T09:32:55;101151.91;;;-3.13
73685;BMP280;61985;51.070;14.064;2023-02-08T09:35:21;101153.78;;;-3.04
73685;BMP280;61985;51.070;14.064;2023-02-08T09:37:46;101151.41;;;-2.95
73685;BMP280;61985;51.070;14.064;2023-02-08T09:40:21;101152.50;;;-2.96
73685;BMP280;61985;51.070;14.064;2023-02-08T09:42:54;101149.84;;;-2.80
73685;BMP280;61985;51.070;14.064;2023-02-08T09:45:43;101152.19;;;-2.74
73685;BMP280;61985;51.070;14.064;2023-02-08T09:48:23;101151.44;;;-2.90
73685;BMP280;61985;51.070;14.064;2023-02-08T09:53:32;101150.09;;;-2.87
73685;BMP280;61985;51.070;14.064;2023-02-08T09:56:01;101151.97;;;-2.88
73685;BMP280;61985;51.070;14.064;2023-02-08T09:58:43;101157.75;;;-2.86
73685;BMP280;61985;51.070;14.064;2023-02-08T10:01:18;101154.06;;;-2.64
73685;BMP280;61985;51.070;14.064;2023-02-08T10:03:46;101157.72;;;-2.55
73685;BMP280;61985;51.070;14.064;2023-02-08T10:06:14;101154.03;;;-2.54
73685;BMP280;61985;51.070;14.064;2023-02-08T10:08:41;101151.91;;;-2.46
73685;BMP280;61985;51.070;14.064;2023-02-08T10:11:39;101156.66;;;-2.43
73685;BMP280;61985;51.070;14.064;2023-02-08T10:14:23;101150.81;;;-2.25
73685;BMP280;61985;51.070;14.064;2023-02-08T10:17:01;101140.81;;;-2.48
73685;BMP280;61985;51.070;14.064;2023-02-08T10:25:07;101131.03;;;-2.48
73685;BMP280;61985;51.070;14.064;2023-02-08T10:33:04;101126.53;;;-2.42
73685;BMP280;61985;51.070;14.064;2023-02-08T10:35:36;101122.84;;;-2.46
73685;BMP280;61985;51.070;14.064;2023-02-08T10:40:44;101112.28;;;-2.46
73685;BMP280;61985;51.070;14.064;2023-02-08T10:43:28;101116.00;;;-2.47
73685;BMP280;61985;51.070;14.064;2023-02-08T10:46:06;101108.06;;;-2.53
73685;BMP280;61985;51.070;14.064;2023-02-08T10:51:19;101100.69;;;-2.51
73685;BMP280;61985;51.070;14.064;2023-02-08T10:53:45;101091.97;;;-2.46
73685;BMP280;61985;51.070;14.064;2023-02-08T10:58:52;101090.06;;;-2.40
73685;BMP280;61985;51.070;14.064;2023-02-08T11:01:18;101088.50;;;-2.36
73685;BMP280;61985;51.070;14.064;2023-02-08T11:04:04;101091.06;;;-2.16
73685;BMP280;61985;51.070;14.064;2023-02-08T11:06:30;101077.81;;;-2.05
73685;BMP280;61985;51.070;14.064;2023-02-08T11:08:56;101077.53;;;-2.04
73685;BMP280;61985;51.070;14.064;2023-02-08T11:11:23;101064.59;;;-2.05
73685;BMP280;61985;51.070;14.064;2023-02-08T11:13:51;101071.69;;;-2.01
73685;BMP280;61985;51.070;14.064;2023-02-08T11:16:22;101064.56;;;-2.00
73685;BMP280;61985;51.070;14.064;2023-02-08T11:18:52;101071.00;;;-2.17
73685;BMP280;61985;51.070;14.064;2023-02-08T11:23:54;101072.50;;;-2.00
73685;BMP280;61985;51.070;14.064;2023-02-08T11:26:31;101070.81;;;-1.81
73685;BMP280;61985;51.070;14.064;2023-02-08T11:29:12;101078.16;;;-1.72
73685;BMP280;61985;51.070;14.064;2023-02-08T11:31:38;101070.44;;;-1.64
73685;BMP280;61985;51.070;14.064;2023-02-08T11:34:08;101073.56;;;-1.56
73685;BMP280;61985;51.070;14.064;2023-02-08T11:36:35;101074.34;;;-1.56
73685;BMP280;61985;51.070;14.064;2023-02-08T11:39:03;101070.59;;;-1.50
73685;BMP280;61985;51.070;14.064;2023-02-08T11:41:42;101065.31;;;-1.50
73685;BMP280;61985;51.070;14.064;2023-02-08T11:44:14;101059.97;;;-1.45
73685;BMP280;61985;51.070;14.064;2023-02-08T11:46:45;101057.31;;;-1.39
73685;BMP280;61985;51.070;14.064;2023-02-08T11:49:39;101057.59;;;-1.41
73685;BMP280;61985;51.070;14.064;2023-02-08T11:52:17;101054.59;;;-1.29
73685;BMP280;61985;51.070;14.064;2023-02-08T11:54:43;101054.53;;;-1.24
73685;BMP280;61985;51.070;14.064;2023-02-08T11:57:20;101051.66;;;-1.28
73685;BMP280;61985;51.070;14.064;2023-02-08T11:59:49;101058.81;;;-1.28
73685;BMP280;61985;51.070;14.064;2023-02-08T12:04:56;101053.25;;;-1.27
73685;BMP280;61985;51.070;14.064;2023-02-08T12:12:49;101050.19;;;-0.85
73685;BMP280;61985;51.070;14.064;2023-02-08T12:15:35;101053.53;;;-1.04
73685;BMP280;61985;51.070;14.064;2023-02-08T12:20:45;101045.91;;;-0.81
73685;BMP280;61985;51.070;14.064;2023-02-08T12:26:17;101045.75;;;-0.47
73685;BMP280;61985;51.070;14.064;2023-02-08T12:29:14;101041.31;;;-0.51
73685;BMP280;61985;51.070;14.064;2023-02-08T12:31:56;101045.28;;;-0.49
73685;BMP280;61985;51.070;14.064;2023-02-08T12:37:49;101042.91;;;-0.26
73685;BMP280;61985;51.070;14.064;2023-02-08T12:40:45;101031.44;;;-0.03
73685;BMP280;61985;51.070;14.064;2023-02-08T12:46:20;101024.06;;;-0.06
73685;BMP280;61985;51.070;14.064;2023-02-08T12:51:41;101024.88;;;0.28
73685;BMP280;61985;51.070;14.064;2023-02-08T12:57:04;101026.63;;;0.65
73685;BMP280;61985;51.070;14.064;2023-02-08T12:59:40;101022.50;;;0.59
73685;BMP280;61985;51.070;14.064;2023-02-08T13:02:20;101021.66;;;0.45
73685;BMP280;61985;51.070;14.064;2023-02-08T13:04:50;101019.63;;;0.56
73685;BMP280;61985;51.070;14.064;2023-02-08T13:07:32;101012.81;;;0.82
73685;BMP280;61985;51.070;14.064;2023-02-08T13:10:05;101021.22;;;0.70
73685;BMP280;61985;51.070;14.064;2023-02-08T13:12:39;101015.53;;;0.77
73685;BMP280;61985;51.070;14.064;2023-02-08T13:18:00;101010.63;;;1.12
73685;BMP280;61985;51.070;14.064;2023-02-08T13:20:44;101002.97;;;0.97
73685;BMP280;61985;51.070;14.064;2023-02-08T13:23:25;100991.16;;;0.89
73685;BMP280;61985;51.070;14.064;2023-02-08T13:25:57;100996.28;;;0.99
73685;BMP280;61985;51.070;14.064;2023-02-08T13:28:25;100994.31;;;1.05
73685;BMP280;61985;51.070;14.064;2023-02-08T13:31:03;100991.63;;;0.77
73685;BMP280;61985;51.070;14.064;2023-02-08T13:33:35;100985.94;;;0.70
73685;BMP280;61985;51.070;14.064;2023-02-08T13:36:03;100984.09;;;0.84
73685;BMP280;61985;51.070;14.064;2023-02-08T13:38:33;100979.81;;;0.56
73685;BMP280;61985;51.070;14.064;2023-02-08T13:41:05;100965.00;;;0.54
73685;BMP280;61985;51.070;14.064;2023-02-08T13:43:39;100971.66;;;0.52
73685;BMP280;61985;51.070;14.064;2023-02-08T13:46:06;100969.53;;;0.82
73685;BMP280;61985;51.070;14.064;2023-02-08T13:48:41;100978.00;;;0.84
73685;BMP280;61985;51.070;14.064;2023-02-08T13:56:40;100962.41;;;1.33
73685;BMP280;61985;51.070;14.064;2023-02-08T13:59:32;100970.69;;;1.31
73685;BMP280;61985;51.070;14.064;2023-02-08T14:04:47;100979.34;;;1.23
73685;BMP280;61985;51.070;14.064;2023-02-08T14:07:27;100972.25;;;1.55
73685;BMP280;61985;51.070;14.064;2023-02-08T14:10:18;100972.91;;;1.74
73685;BMP280;61985;51.070;14.064;2023-02-08T14:12:58;100966.34;;;1.58
73685;BMP280;61985;51.070;14.064;2023-02-08T14:15:35;100969.94;;;1.39
73685;BMP280;61985;51.070;14.064;2023-02-08T14:18:02;100971.22;;;1.42
73685;BMP280;61985;51.070;14.064;2023-02-08T14:20:35;100973.72;;;1.61
73685;BMP280;61985;51.070;14.064;2023-02-08T14:23:20;100964.28;;;1.55
73685;BMP280;61985;51.070;14.064;2023-02-08T14:25:48;100952.56;;;1.33
73685;BMP280;61985;51.070;14.064;2023-02-08T14:28:30;100960.28;;;1.43
73685;BMP280;61985;51.070;14.064;2023-02-08T14:30:57;100959.56;;;1.52
73685;BMP280;61985;51.070;14.064;2023-02-08T14:33:26;100961.28;;;1.48
73685;BMP280;61985;51.070;14.064;2023-02-08T14:35:57;100961.78;;;1.72
73685;BMP280;61985;51.070;14.064;2023-02-08T14:45:46;100952.13;;;0.76
73685;BMP280;61985;51.070;14.064;2023-02-08T14:48:30;100961.22;;;0.42
73685;BMP280;61985;51.070;14.064;2023-02-08T14:53:50;100946.03;;;0.01
73685;BMP280;61985;51.070;14.064;2023-02-08T14:56:34;100952.66;;;0.45
73685;BMP280;61985;51.070;14.064;2023-02-08T14:59:17;100960.00;;;0.81
73685;BMP280;61985;51.070;14.064;2023-02-08T15:01:58;100961.25;;;0.97
73685;BMP280;61985;51.070;14.064;2023-02-08T15:04:24;100946.31;;;0.87
73685;BMP280;61985;51.070;14.064;2023-02-08T15:09:30;100948.19;;;0.87
73685;BMP280;61985;51.070;14.064;2023-02-08T15:12:02;100949.47;;;1.03
73685;BMP280;61985;51.070;14.064;2023-02-08T15:14:30;100957.41;;;0.76
73685;BMP280;61985;51.070;14.064;2023-02-08T15:16:57;100947.84;;;0.19
73685;BMP280;61985;51.070;14.064;2023-02-08T15:19:28;100951.84;;;-0.16
73685;BMP280;61985;51.070;14.064;2023-02-08T15:22:48;100943.66;;;-0.39
73685;BMP280;61985;51.070;14.064;2023-02-08T15:24:54;100941.75;;;-0.52
73685;BMP280;61985;51.070;14.064;2023-02-08T15:27:26;100933.94;;;-0.63
73685;BMP280;61985;51.070;14.064;2023-02-08T15:29:51;100937.00;;;-0.75
73685;BMP280;61985;51.070;14.064;2023-02-08T15:32:20;100925.41;;;-0.79
73685;BMP280;61985;51.070;14.064;2023-02-08T15:34:59;100923.09;;;-0.85
73685;BMP280;61985;51.070;14.064;2023-02-08T15:37:26;100921.09;;;-0.94
73685;BMP280;61985;51.070;14.064;2023-02-08T15:39:56;100911.34;;;-0.98
73685;BMP280;61985;51.070;14.064;2023-02-08T15:42:25;100914.63;;;-1.06
73685;BMP280;61985;51.070;14.064;2023-02-08T15:44:51;100911.03;;;-1.16
73685;BMP280;61985;51.070;14.064;2023-02-08T15:49:51;100906.34;;;-1.24
73685;BMP280;61985;51.070;14.064;2023-02-08T15:52:20;100908.88;;;-1.38
73685;BMP280;61985;51.070;14.064;2023-02-08T15:54:46;100906.06;;;-1.47
73685;BMP280;61985;51.070;14.064;2023-02-08T16:00:01;100907.28;;;-1.63
73685;BMP280;61985;51.070;14.064;2023-02-08T16:04:53;100903.81;;;-1.88
73685;BMP280;61985;51.070;14.064;2023-02-08T16:07:32;100905.00;;;-2.04
73685;BMP280;61985;51.070;14.064;2023-02-08T16:09:59;100899.28;;;-2.17
73685;BMP280;61985;51.070;14.064;2023-02-08T16:12:29;100896.91;;;-2.18
73685;BMP280;61985;51.070;14.064;2023-02-08T16:17:45;100896.72;;;-2.37
73685;BMP280;61985;51.070;14.064;2023-02-08T16:20:27;100893.31;;;-2.33
73685;BMP280;61985;51.070;14.064;2023-02-08T16:22:58;100896.28;;;-2.44
73685;BMP280;61985;51.070;14.064;2023-02-08T16:25:35;100899.97;;;-2.45
73685;BMP280;61985;51.070;14.064;2023-02-08T16:28:02;100897.88;;;-2.48
73685;BMP280;61985;51.070;14.064;2023-02-08T16:30:28;100896.28;;;-2.50
73685;BMP280;61985;51.070;14.064;2023-02-08T16:32:54;100902.13;;;-2.53
73685;BMP280;61985;51.070;14.064;2023-02-08T16:35:27;100895.84;;;-2.62
73685;BMP280;61985;51.070;14.064;2023-02-08T16:37:56;100892.47;;;-2.73
73685;BMP280;61985;51.070;14.064;2023-02-08T16:40:46;100893.53;;;-2.74
73685;BMP280;61985;51.070;14.064;2023-02-08T16:46:15;100894.06;;;-2.77
73685;BMP280;61985;51.070;14.064;2023-02-08T16:48:51;100889.56;;;-2.76
73685;BMP280;61985;51.070;14.064;2023-02-08T16:51:28;100875.81;;;-2.73
73685;BMP280;61985;51.070;14.064;2023-02-08T16:53:57;100891.72;;;-2.83
73685;BMP280;61985;51.070;14.064;2023-02-08T16:56:25;100881.72;;;-2.87
73685;BMP280;61985;51.070;14.064;2023-02-08T16:58:50;100888.88;;;-2.92
73685;BMP280;61985;51.070;14.064;2023-02-08T17:01:16;100885.69;;;-2.99
73685;BMP280;61985;51.070;14.064;2023-02-08T17:03:43;100883.63;;;-2.97
73685;BMP280;61985;51.070;14.064;2023-02-08T17:08:44;100887.56;;;-2.95
73685;BMP280;61985;51.070;14.064;2023-02-08T17:13:44;100882.56;;;-3.07
73685;BMP280;61985;51.070;14.064;2023-02-08T17:16:18;100885.44;;;-2.93
73685;BMP280;61985;51.070;14.064;2023-02-08T17:18:47;100882.81;;;-2.93
73685;BMP280;61985;51.070;14.064;2023-02-08T17:21:13;100882.81;;;-2.93
73685;BMP280;61985;51.070;14.064;2023-02-08T17:23:39;100889.59;;;-2.81
73685;BMP280;61985;51.070;14.064;2023-02-08T17:26:33;100888.56;;;-2.86
73685;BMP280;61985;51.070;14.064;2023-02-08T17:28:59;100875.88;;;-2.78
73685;BMP280;61985;51.070;14.064;2023-02-08T17:31:25;100871.06;;;-2.66
73685;BMP280;61985;51.070;14.064;2023-02-08T17:33:53;100869.97;;;-2.60
73685;BMP280;61985;51.070;14.064;2023-02-08T17:36:19;100872.28;;;-2.53
73685;BMP280;61985;51.070;14.064;2023-02-08T17:38:48;100869.09;;;-2.50
73685;BMP280;61985;51.070;14.064;2023-02-08T17:41:16;100865.63;;;-2.45
73685;BMP280;61985;51.070;14.064;2023-02-08T17:43:43;100865.63;;;-2.45
73685;BMP280;61985;51.070;14.064;2023-02-08T17:46:15;100853.25;;;-2.50
73685;BMP280;61985;51.070;14.064;2023-02-08T17:48:41;100851.41;;;-2.50
73685;BMP280;61985;51.070;14.064;2023-02-08T17:51:18;100849.25;;;-2.42
73685;BMP280;61985;51.070;14.064;2023-02-08T17:53:43;100833.19;;;-2.46
73685;BMP280;61985;51.070;14.064;2023-02-08T17:56:14;100837.69;;;-2.52
73685;BMP280;61985;51.070;14.064;2023-02-08T17:59:15;100834.34;;;-2.62
73685;BMP280;61985;51.070;14.064;2023-02-08T18:01:53;100846.22;;;-2.60
73685;BMP280;61985;51.070;14.064;2023-02-08T18:04:19;100844.13;;;-2.68
73685;BMP280;61985;51.070;14.064;2023-02-08T18:06:44;100845.38;;;-2.55
73685;BMP280;61985;51.070;14.064;2023-02-08T18:09:09;100844.59;;;-2.56
73685;BMP280;61985;51.070;14.064;2023-02-08T18:11:35;100833.78;;;-2.59
73685;BMP280;61985;51.070;14.064;2023-02-08T18:14:00;100836.16;;;-2.58
73685;BMP280;61985;51.070;14.064;2023-02-08T18:16:26;100838.84;;;-2.63
73685;BMP280;61985;51.070;14.064;2023-02-08T18:18:56;100826.72;;;-2.69
73685;BMP280;61985;51.070;14.064;2023-02-08T18:21:22;100831.22;;;-2.70
73685;BMP280;61985;51.070;14.064;2023-02-08T18:23:51;100834.34;;;-2.62
73685;BMP280;61985;51.070;14.064;2023-02-08T18:26:19;100838.31;;;-2.70